sensor_id;sensor_type;location;lat;lon;timestamp;temperature;humidity
421;DHT22;63667;49.046;8.468;2023-02-01T00:00:44;5.20;99.60
421;DHT22;63667;49.046;8.468;2023-02-01T00:03:11;5.20;99.60
421;DHT22;63667;49.046;8.468;2023-02-01T00:05:41;5.20;99.60
421;DHT22;63667;49.046;8.468;2023-02-01T00:08:09;5.30;99.60
421;DHT22;63667;49.046;8.468;2023-02-01T00:10:36;5.20;99.60
421;DHT22;63667;49.046;8.468;2023-02-01T00:13:03;5.20;99.60
421;DHT22;63667;49.046;8.468;2023-02-01T00:15:30;5.30;99.60
421;DHT22;63667;49.046;8.468;2023-02-01T00:17:58;5.30;99.60
421;DHT22;63667;49.046;8.468;2023-02-01T00:20:26;5.30;99.60
421;DHT22;63667;49.046;8.468;2023-02-01T00:22:53;5.30;99.60
421;DHT22;63667;49.046;8.468;2023-02-01T00:25:22;5.30;99.60
421;DHT22;63667;49.046;8.468;2023-02-01T00:27:49;5.30;99.60
421;DHT22;63667;49.046;8.468;2023-02-01T00:30:18;5.30;99.60
421;DHT22;63667;49.046;8.468;2023-02-01T00:32:52;5.30;99.60
421;DHT22;63667;49.046;8.468;2023-02-01T00:35:21;5.30;99.60
421;DHT22;63667;49.046;8.468;2023-02-01T00:38:06;5.30;99.60
421;DHT22;63667;49.046;8.468;2023-02-01T00:40:32;5.30;99.60
421;DHT22;63667;49.046;8.468;2023-02-01T00:42:59;5.40;99.60
421;DHT22;63667;49.046;8.468;2023-02-01T00:45:27;5.30;99.60
421;DHT22;63667;49.046;8.468;2023-02-01T00:47:54;5.40;99.60
421;DHT22;63667;49.046;8.468;2023-02-01T00:50:23;5.40;99.60
421;DHT22;63667;49.046;8.468;2023-02-01T00:52:50;5.40;99.60
421;DHT22;63667;49.046;8.468;2023-02-01T00:55:19;5.40;99.60
421;DHT22;63667;49.046;8.468;2023-02-01T00:57:46;5.40;99.60
421;DHT22;63667;49.046;8.468;2023-02-01T01:00:15;5.40;99.60
421;DHT22;63667;49.046;8.468;2023-02-01T01:02:42;5.40;99.60
421;DHT22;63667;49.046;8.468;2023-02-01T01:05:10;5.40;99.60
421;DHT22;63667;49.046;8.468;2023-02-01T01:07:37;5.40;99.60
421;DHT22;63667;49.046;8.468;2023-02-01T01:10:07;5.50;99.60
421;DHT22;63667;49.046;8.468;2023-02-01T01:12:35;5.40;99.60
421;DHT22;63667;49.046;8.468;2023-02-01T01:15:03;5.40;99.60
421;DHT22;63667;49.046;8.468;2023-02-01T01:17:31;5.40;99.60
421;DHT22;63667;49.046;8.468;2023-02-01T01:20:03;5.40;99.60
421;DHT22;63667;49.046;8.468;2023-02-01T01:22:31;5.30;99.60
421;DHT22;63667;49.046;8.468;2023-02-01T01:24:59;5.40;99.60
421;DHT22;63667;49.046;8.468;2023-02-01T01:27:26;5.40;99.60
421;DHT22;63667;49.046;8.468;2023-02-01T01:29:59;5.40;99.60
421;DHT22;63667;49.046;8.468;2023-02-01T01:32:33;5.50;99.60
421;DHT22;63667;49.046;8.468;2023-02-01T01:35:01;5.50;99.60
421;DHT22;63667;49.046;8.468;2023-02-01T01:37:32;5.50;99.60
421;DHT22;63667;49.046;8.468;2023-02-01T01:40:00;5.50;99.60
421;DHT22;63667;49.046;8.468;2023-02-01T01:42:27;5.50;99.60
421;DHT22;63667;49.046;8.468;2023-02-01T01:45:01;5.50;99.60
421;DHT22;63667;49.046;8.468;2023-02-01T01:47:38;5.50;99.60
421;DHT22;63667;49.046;8.468;2023-02-01T01:50:10;5.50;99.60
421;DHT22;63667;49.046;8.468;2023-02-01T01:52:39;5.50;99.60
421;DHT22;63667;49.046;8.468;2023-02-01T01:55:07;5.50;99.60
421;DHT22;63667;49.046;8.468;2023-02-01T01:57:40;5.50;99.60
421;DHT22;63667;49.046;8.468;2023-02-01T02:00:14;5.50;99.60
421;DHT22;63667;49.046;8.468;2023-02-01T02:02:43;5.50;99.60
421;DHT22;63667;49.046;8.468;2023-02-01T02:05:13;5.50;99.60
421;DHT22;63667;49.046;8.468;2023-02-01T02:07:45;5.60;99.60
421;DHT22;63667;49.046;8.468;2023-02-01T02:10:14;5.60;99.60
421;DHT22;63667;49.046;8.468;2023-02-01T02:12:42;5.60;99.60
421;DHT22;63667;49.046;8.468;2023-02-01T02:15:12;5.60;99.60
421;DHT22;63667;49.046;8.468;2023-02-01T02:28:56;5.60;99.60
421;DHT22;63667;49.046;8.468;2023-02-01T02:37:15;5.60;99.60
421;DHT22;63667;49.046;8.468;2023-02-01T02:46:38;5.60;99.60
421;DHT22;63667;49.046;8.468;2023-02-01T02:49:49;5.60;99.60
421;DHT22;63667;49.046;8.468;2023-02-01T02:52:46;5.60;99.60
421;DHT22;63667;49.046;8.468;2023-02-01T02:55:14;5.60;99.60
421;DHT22;63667;49.046;8.468;2023-02-01T02:57:43;5.60;99.60
421;DHT22;63667;49.046;8.468;2023-02-01T03:00:32;5.70;99.60
421;DHT22;63667;49.046;8.468;2023-02-01T03:03:18;5.60;99.60
421;DHT22;63667;49.046;8.468;2023-02-01T03:06:03;5.70;99.60
421;DHT22;63667;49.046;8.468;2023-02-01T03:08:32;5.70;99.60
421;DHT22;63667;49.046;8.468;2023-02-01T03:11:08;5.70;99.60
421;DHT22;63667;49.046;8.468;2023-02-01T03:16:24;5.50;99.60
421;DHT22;63667;49.046;8.468;2023-02-01T03:21:41;5.40;99.60
421;DHT22;63667;49.046;8.468;2023-02-01T03:24:18;5.40;99.60
421;DHT22;63667;49.046;8.468;2023-02-01T03:26:53;5.40;99.60
421;DHT22;63667;49.046;8.468;2023-02-01T03:29:28;5.50;99.60
421;DHT22;63667;49.046;8.468;2023-02-01T03:31:56;5.50;99.60
421;DHT22;63667;49.046;8.468;2023-02-01T03:34:24;5.50;99.60
421;DHT22;63667;49.046;8.468;2023-02-01T03:36:59;5.50;99.60
421;DHT22;63667;49.046;8.468;2023-02-01T03:39:46;5.50;99.60
421;DHT22;63667;49.046;8.468;2023-02-01T03:42:30;5.50;99.60
421;DHT22;63667;49.046;8.468;2023-02-01T03:47:48;5.50;99.60
421;DHT22;63667;49.046;8.468;2023-02-01T03:50:20;5.60;99.60
421;DHT22;63667;49.046;8.468;2023-02-01T03:53:01;5.60;99.60
421;DHT22;63667;49.046;8.468;2023-02-01T03:55:30;5.60;99.60
421;DHT22;63667;49.046;8.468;2023-02-01T03:58:11;5.60;99.60
421;DHT22;63667;49.046;8.468;2023-02-01T04:00:38;5.70;99.60
421;DHT22;63667;49.046;8.468;2023-02-01T04:03:07;5.70;99.60
421;DHT22;63667;49.046;8.468;2023-02-01T04:05:35;5.70;99.60
421;DHT22;63667;49.046;8.468;2023-02-01T04:08:03;5.70;99.60
421;DHT22;63667;49.046;8.468;2023-02-01T04:10:32;5.70;99.60
421;DHT22;63667;49.046;8.468;2023-02-01T04:13:00;5.50;99.60
421;DHT22;63667;49.046;8.468;2023-02-01T04:15:28;5.40;99.60
421;DHT22;63667;49.046;8.468;2023-02-01T04:17:55;5.40;99.60
421;DHT22;63667;49.046;8.468;2023-02-01T04:20:23;5.30;99.60
421;DHT22;63667;49.046;8.468;2023-02-01T04:22:51;5.30;99.60
421;DHT22;63667;49.046;8.468;2023-02-01T04:25:18;5.30;99.60
421;DHT22;63667;49.046;8.468;2023-02-01T04:27:45;5.30;99.60
421;DHT22;63667;49.046;8.468;2023-02-01T04:30:14;5.30;99.60
421;DHT22;63667;49.046;8.468;2023-02-01T04:32:42;5.40;99.60
421;DHT22;63667;49.046;8.468;2023-02-01T04:35:09;5.30;99.60
421;DHT22;63667;49.046;8.468;2023-02-01T04:37:38;5.30;99.60
421;DHT22;63667;49.046;8.468;2023-02-01T04:40:07;5.20;99.60
421;DHT22;63667;49.046;8.468;2023-02-01T04:42:36;5.10;99.60
421;DHT22;63667;49.046;8.468;2023-02-01T04:45:05;5.10;99.60
421;DHT22;63667;49.046;8.468;2023-02-01T04:47:34;5.00;99.60
421;DHT22;63667;49.046;8.468;2023-02-01T04:50:01;5.00;99.60
421;DHT22;63667;49.046;8.468;2023-02-01T04:52:28;5.00;99.60
421;DHT22;63667;49.046;8.468;2023-02-01T04:54:56;5.00;99.60
421;DHT22;63667;49.046;8.468;2023-02-01T04:57:25;5.00;99.60
421;DHT22;63667;49.046;8.468;2023-02-01T04:59:53;5.00;99.60
421;DHT22;63667;49.046;8.468;2023-02-01T05:02:21;5.00;99.60
421;DHT22;63667;49.046;8.468;2023-02-01T05:04:49;5.00;99.60
421;DHT22;63667;49.046;8.468;2023-02-01T05:07:17;5.10;99.60
421;DHT22;63667;49.046;8.468;2023-02-01T05:09:44;5.10;99.60
421;DHT22;63667;49.046;8.468;2023-02-01T05:12:12;5.10;99.60
421;DHT22;63667;49.046;8.468;2023-02-01T05:14:58;5.10;99.60
421;DHT22;63667;49.046;8.468;2023-02-01T05:17:24;5.20;99.60
421;DHT22;63667;49.046;8.468;2023-02-01T05:19:53;5.40;99.60
421;DHT22;63667;49.046;8.468;2023-02-01T05:22:20;5.30;99.60
421;DHT22;63667;49.046;8.468;2023-02-01T05:24:48;5.20;99.60
421;DHT22;63667;49.046;8.468;2023-02-01T05:27:14;5.10;99.60
421;DHT22;63667;49.046;8.468;2023-02-01T05:29:42;5.10;99.60
421;DHT22;63667;49.046;8.468;2023-02-01T05:32:10;5.10;99.60
421;DHT22;63667;49.046;8.468;2023-02-01T05:34:37;5.10;99.60
421;DHT22;63667;49.046;8.468;2023-02-01T05:37:04;5.10;99.60
421;DHT22;63667;49.046;8.468;2023-02-01T05:39:32;5.10;99.60
421;DHT22;63667;49.046;8.468;2023-02-01T05:42:00;5.10;99.60
421;DHT22;63667;49.046;8.468;2023-02-01T05:44:27;5.10;99.60
421;DHT22;63667;49.046;8.468;2023-02-01T05:46:54;5.10;99.60
421;DHT22;63667;49.046;8.468;2023-02-01T05:49:22;5.20;99.60
421;DHT22;63667;49.046;8.468;2023-02-01T05:51:50;5.20;99.60
421;DHT22;63667;49.046;8.468;2023-02-01T05:54:17;5.20;99.60
421;DHT22;63667;49.046;8.468;2023-02-01T05:56:45;5.20;99.60
421;DHT22;63667;49.046;8.468;2023-02-01T05:59:12;5.20;99.60
421;DHT22;63667;49.046;8.468;2023-02-01T06:01:38;5.20;99.60
421;DHT22;63667;49.046;8.468;2023-02-01T06:04:05;5.20;99.60
421;DHT22;63667;49.046;8.468;2023-02-01T06:06:32;5.20;99.60
421;DHT22;63667;49.046;8.468;2023-02-01T06:09:00;5.20;99.60
421;DHT22;63667;49.046;8.468;2023-02-01T06:11:26;5.20;99.60
421;DHT22;63667;49.046;8.468;2023-02-01T06:13:54;5.20;99.60
421;DHT22;63667;49.046;8.468;2023-02-01T06:16:22;5.20;99.60
421;DHT22;63667;49.046;8.468;2023-02-01T06:18:50;5.30;99.60
421;DHT22;63667;49.046;8.468;2023-02-01T06:21:18;5.30;99.60
421;DHT22;63667;49.046;8.468;2023-02-01T06:23:51;5.30;99.60
421;DHT22;63667;49.046;8.468;2023-02-01T06:26:19;5.20;99.60
421;DHT22;63667;49.046;8.468;2023-02-01T06:28:46;5.20;99.60
421;DHT22;63667;49.046;8.468;2023-02-01T06:31:14;5.20;99.60
421;DHT22;63667;49.046;8.468;2023-02-01T06:33:42;5.20;99.60
421;DHT22;63667;49.046;8.468;2023-02-01T06:36:10;5.30;99.60
421;DHT22;63667;49.046;8.468;2023-02-01T06:38:42;5.40;99.60
421;DHT22;63667;49.046;8.468;2023-02-01T06:41:09;5.40;99.60
421;DHT22;63667;49.046;8.468;2023-02-01T06:43:38;5.40;99.60
421;DHT22;63667;49.046;8.468;2023-02-01T06:46:07;5.40;99.60
421;DHT22;63667;49.046;8.468;2023-02-01T06:48:35;5.40;99.60
421;DHT22;63667;49.046;8.468;2023-02-01T06:51:02;5.40;99.60
421;DHT22;63667;49.046;8.468;2023-02-01T06:53:30;5.40;99.60
421;DHT22;63667;49.046;8.468;2023-02-01T06:56:04;5.40;99.60
421;DHT22;63667;49.046;8.468;2023-02-01T06:58:32;5.40;99.60
421;DHT22;63667;49.046;8.468;2023-02-01T07:01:07;5.40;99.60
421;DHT22;63667;49.046;8.468;2023-02-01T07:03:35;5.50;99.60
421;DHT22;63667;49.046;8.468;2023-02-01T07:06:02;5.50;99.60
421;DHT22;63667;49.046;8.468;2023-02-01T07:08:31;5.50;99.60
421;DHT22;63667;49.046;8.468;2023-02-01T07:11:06;5.50;99.60
421;DHT22;63667;49.046;8.468;2023-02-01T07:13:37;5.40;99.60
421;DHT22;63667;49.046;8.468;2023-02-01T07:16:08;5.30;99.60
421;DHT22;63667;49.046;8.468;2023-02-01T07:18:37;5.30;99.60
421;DHT22;63667;49.046;8.468;2023-02-01T07:21:05;5.20;99.60
421;DHT22;63667;49.046;8.468;2023-02-01T07:23:32;5.20;99.60
421;DHT22;63667;49.046;8.468;2023-02-01T07:26:01;5.20;99.60
421;DHT22;63667;49.046;8.468;2023-02-01T07:28:30;5.20;99.60
421;DHT22;63667;49.046;8.468;2023-02-01T07:31:04;5.20;99.60
421;DHT22;63667;49.046;8.468;2023-02-01T07:33:32;5.20;99.60
421;DHT22;63667;49.046;8.468;2023-02-01T07:36:05;5.30;99.60
421;DHT22;63667;49.046;8.468;2023-02-01T07:38:32;5.30;99.60
421;DHT22;63667;49.046;8.468;2023-02-01T07:41:01;5.30;99.60
421;DHT22;63667;49.046;8.468;2023-02-01T07:43:29;5.30;99.60
421;DHT22;63667;49.046;8.468;2023-02-01T07:45:57;5.30;99.60
421;DHT22;63667;49.046;8.468;2023-02-01T07:48:25;5.30;99.60
421;DHT22;63667;49.046;8.468;2023-02-01T07:51:04;5.30;99.60
421;DHT22;63667;49.046;8.468;2023-02-01T07:53:33;5.30;99.60
421;DHT22;63667;49.046;8.468;2023-02-01T07:56:01;5.30;99.60
421;DHT22;63667;49.046;8.468;2023-02-01T07:58:28;5.30;99.60
421;DHT22;63667;49.046;8.468;2023-02-01T08:00:56;5.40;99.60
421;DHT22;63667;49.046;8.468;2023-02-01T08:03:41;5.40;99.60
421;DHT22;63667;49.046;8.468;2023-02-01T08:06:09;5.50;99.60
421;DHT22;63667;49.046;8.468;2023-02-01T08:08:37;5.50;99.60
421;DHT22;63667;49.046;8.468;2023-02-01T08:11:05;5.50;99.60
421;DHT22;63667;49.046;8.468;2023-02-01T08:13:36;5.60;99.60
421;DHT22;63667;49.046;8.468;2023-02-01T08:16:06;5.70;99.60
421;DHT22;63667;49.046;8.468;2023-02-01T08:18:34;5.80;99.60
421;DHT22;63667;49.046;8.468;2023-02-01T08:21:15;5.80;99.60
421;DHT22;63667;49.046;8.468;2023-02-01T08:23:43;5.90;99.60
421;DHT22;63667;49.046;8.468;2023-02-01T08:26:23;5.90;99.60
421;DHT22;63667;49.046;8.468;2023-02-01T08:28:56;5.90;99.60
421;DHT22;63667;49.046;8.468;2023-02-01T08:31:24;6.00;99.60
421;DHT22;63667;49.046;8.468;2023-02-01T08:33:54;6.00;99.60
421;DHT22;63667;49.046;8.468;2023-02-01T08:36:23;6.00;99.60
421;DHT22;63667;49.046;8.468;2023-02-01T08:38:51;6.00;99.60
421;DHT22;63667;49.046;8.468;2023-02-01T08:41:20;5.90;99.60
421;DHT22;63667;49.046;8.468;2023-02-01T08:43:48;5.90;99.60
421;DHT22;63667;49.046;8.468;2023-02-01T08:46:15;5.80;99.60
421;DHT22;63667;49.046;8.468;2023-02-01T08:48:42;5.70;99.60
421;DHT22;63667;49.046;8.468;2023-02-01T08:51:11;5.60;99.60
421;DHT22;63667;49.046;8.468;2023-02-01T08:53:40;5.60;99.60
421;DHT22;63667;49.046;8.468;2023-02-01T08:56:09;5.60;99.60
421;DHT22;63667;49.046;8.468;2023-02-01T08:58:37;5.60;99.60
421;DHT22;63667;49.046;8.468;2023-02-01T09:01:09;5.60;99.60
421;DHT22;63667;49.046;8.468;2023-02-01T09:03:37;5.70;99.60
421;DHT22;63667;49.046;8.468;2023-02-01T09:06:07;5.70;99.60
421;DHT22;63667;49.046;8.468;2023-02-01T09:08:34;5.80;99.60
421;DHT22;63667;49.046;8.468;2023-02-01T09:11:04;5.90;99.60
421;DHT22;63667;49.046;8.468;2023-02-01T09:13:31;6.00;99.60
421;DHT22;63667;49.046;8.468;2023-02-01T09:16:01;6.00;99.60
421;DHT22;63667;49.046;8.468;2023-02-01T09:18:29;6.10;99.60
421;DHT22;63667;49.046;8.468;2023-02-01T09:20:57;6.20;99.60
421;DHT22;63667;49.046;8.468;2023-02-01T09:23:25;6.30;99.60
421;DHT22;63667;49.046;8.468;2023-02-01T09:25:52;6.30;99.60
421;DHT22;63667;49.046;8.468;2023-02-01T09:28:19;6.40;99.60
421;DHT22;63667;49.046;8.468;2023-02-01T09:30:46;6.50;99.60
421;DHT22;63667;49.046;8.468;2023-02-01T09:33:14;6.50;99.60
421;DHT22;63667;49.046;8.468;2023-02-01T09:38:08;6.50;99.60
421;DHT22;63667;49.046;8.468;2023-02-01T09:40:35;6.60;99.60
421;DHT22;63667;49.046;8.468;2023-02-01T09:48:29;6.60;99.60
421;DHT22;63667;49.046;8.468;2023-02-01T09:50:59;6.50;99.60
421;DHT22;63667;49.046;8.468;2023-02-01T09:53:36;6.30;99.60
421;DHT22;63667;49.046;8.468;2023-02-01T09:56:22;6.20;99.60
421;DHT22;63667;49.046;8.468;2023-02-01T09:59:01;6.20;99.60
421;DHT22;63667;49.046;8.468;2023-02-01T10:01:29;6.20;99.60
421;DHT22;63667;49.046;8.468;2023-02-01T10:04:21;6.20;99.60
421;DHT22;63667;49.046;8.468;2023-02-01T10:23:04;6.80;99.60
421;DHT22;63667;49.046;8.468;2023-02-01T10:25:53;6.90;99.60
421;DHT22;63667;49.046;8.468;2023-02-01T10:28:21;6.90;99.60
421;DHT22;63667;49.046;8.468;2023-02-01T10:30:53;7.00;99.60
421;DHT22;63667;49.046;8.468;2023-02-01T10:33:33;7.10;99.60
421;DHT22;63667;49.046;8.468;2023-02-01T10:36:25;7.10;99.60
421;DHT22;63667;49.046;8.468;2023-02-01T10:38:57;7.20;99.60
421;DHT22;63667;49.046;8.468;2023-02-01T10:41:35;7.10;99.60
421;DHT22;63667;49.046;8.468;2023-02-01T10:44:15;7.10;99.60
421;DHT22;63667;49.046;8.468;2023-02-01T10:52:14;7.10;99.60
421;DHT22;63667;49.046;8.468;2023-02-01T10:59:56;7.20;99.60
421;DHT22;63667;49.046;8.468;2023-02-01T11:05:08;7.10;99.60
421;DHT22;63667;49.046;8.468;2023-02-01T11:10:40;7.00;99.60
421;DHT22;63667;49.046;8.468;2023-02-01T11:13:16;7.00;99.60
421;DHT22;63667;49.046;8.468;2023-02-01T11:15:45;7.00;99.60
421;DHT22;63667;49.046;8.468;2023-02-01T11:18:36;6.90;99.60
421;DHT22;63667;49.046;8.468;2023-02-01T11:21:05;7.00;99.60
421;DHT22;63667;49.046;8.468;2023-02-01T11:23:35;7.00;99.60
421;DHT22;63667;49.046;8.468;2023-02-01T11:28:42;6.90;99.60
421;DHT22;63667;49.046;8.468;2023-02-01T11:31:12;7.00;99.60
421;DHT22;63667;49.046;8.468;2023-02-01T11:36:20;7.00;99.60
